createdAt,value
2018-11-22T12:17:56.010Z,19.10
2018-11-22T12:20:25.182Z,20.10
2018-11-22T12:22:55.956Z,21.60
2018-11-22T12:25:26.231Z,22.10
2018-11-22T12:27:57.124Z,23.10
2018-11-22T12:30:27.652Z,23.70
2018-11-22T12:33:01.456Z,22.90
2018-11-22T12:35:36.055Z,22.40
2018-11-22T12:38:10.627Z,24.10
2018-11-22T12:40:39.696Z,24.20
2018-11-22T12:43:08.776Z,23.60
2018-11-22T12:45:37.916Z,24.70
2018-11-22T12:48:07.019Z,25.00
2018-11-22T12:50:36.135Z,19.60
2018-11-22T12:53:06.104Z,17.00
2018-11-22T12:55:35.246Z,14.70
2018-11-22T12:58:04.532Z,13.80
2018-11-22T13:00:33.663Z,13.10
2018-11-22T13:03:02.747Z,12.30
2018-11-22T13:05:31.887Z,11.20
2018-11-22T13:08:00.971Z,10.60
2018-11-22T13:10:30.100Z,10.20
2018-11-22T13:12:59.184Z,9.90
2018-11-22T13:15:28.403Z,9.80
2018-11-22T13:17:57.494Z,9.40
2018-11-22T13:20:26.613Z,9.10
2018-11-22T13:22:55.743Z,8.90
2018-11-22T13:25:25.024Z,8.50
2018-11-22T13:27:54.091Z,8.40
2018-11-22T13:30:24.602Z,8.30
2018-11-22T13:32:54.463Z,8.20
2018-11-22T13:35:23.632Z,8.10
2018-11-22T13:37:54.007Z,7.80
2018-11-22T13:40:23.227Z,8.20
2018-11-22T13:42:53.015Z,8.70
2018-11-22T13:45:26.306Z,8.30
2018-11-22T13:47:56.626Z,8.10
2018-11-22T13:50:29.878Z,7.90
2018-11-22T13:53:07.302Z,7.70
2018-11-22T13:55:37.189Z,7.70
2018-11-22T13:58:07.847Z,7.40
2018-11-22T14:00:37.662Z,7.30
2018-11-22T14:03:08.639Z,7.30
2018-11-22T14:05:39.373Z,7.30
2018-11-22T14:08:10.099Z,7.20
2018-11-22T14:10:41.202Z,7.10
2018-11-22T14:13:11.295Z,7.10
2018-11-22T14:15:43.227Z,7.10
2018-11-22T14:18:13.977Z,7.00
2018-11-22T14:20:43.164Z,6.80
2018-11-22T14:23:12.820Z,6.80
2018-11-22T14:25:45.065Z,6.70
2018-11-22T14:28:11.722Z,6.80
2018-11-22T14:30:40.959Z,6.70
2018-11-22T14:33:10.576Z,6.70
2018-11-22T14:35:41.159Z,6.70
2018-11-22T14:38:12.675Z,6.80
2018-11-22T14:40:42.341Z,6.70
2018-11-22T14:43:11.799Z,6.60
2018-11-22T14:45:42.147Z,6.50
2018-11-22T14:48:11.802Z,6.40
2018-11-22T14:50:45.991Z,6.40
2018-11-22T14:53:17.986Z,6.40
2018-11-22T14:55:50.306Z,6.20
2018-11-22T14:58:19.534Z,6.30
2018-11-22T15:00:49.191Z,6.20
2018-11-22T15:03:18.324Z,6.10
2018-11-22T15:05:47.569Z,6.10
2018-11-22T15:08:16.741Z,6.00
2018-11-22T15:10:45.904Z,6.00
2018-11-22T15:13:15.117Z,6.00
2018-11-22T15:15:44.276Z,6.10
2018-11-22T15:18:13.424Z,5.80
2018-11-22T15:20:42.579Z,5.70
2018-11-22T15:23:11.701Z,5.60
2018-11-22T15:25:42.998Z,5.20
2018-11-22T15:28:12.187Z,5.20
2018-11-22T15:30:41.923Z,5.20
2018-11-22T15:33:11.512Z,5.20
2018-11-22T15:35:41.708Z,5.10
2018-11-22T15:38:10.907Z,5.10
2018-11-22T15:40:41.556Z,5.00
2018-11-22T15:43:10.727Z,4.60
2018-11-22T15:45:40.744Z,4.50
2018-11-22T15:48:09.903Z,4.50
2018-11-22T15:50:39.068Z,4.50
2018-11-22T15:53:08.205Z,4.10
2018-11-22T15:55:38.380Z,3.90
2018-11-22T15:58:07.706Z,4.10
2018-11-22T16:00:37.511Z,4.00
2018-11-22T16:03:06.677Z,3.90
2018-11-22T16:05:37.109Z,3.60
2018-11-22T16:08:06.967Z,3.50
2018-11-22T16:10:37.237Z,3.50
2018-11-22T16:13:08.735Z,3.40
2018-11-22T16:15:41.937Z,3.20
2018-11-22T16:18:11.279Z,3.30
2018-11-22T16:20:40.436Z,3.30
2018-11-22T16:23:09.774Z,3.10
2018-11-22T16:25:39.745Z,2.90
2018-11-22T16:28:08.779Z,2.90
2018-11-22T16:30:38.599Z,2.70
2018-11-22T16:33:07.803Z,2.90
2018-11-22T16:35:37.304Z,2.70
2018-11-22T16:38:06.915Z,2.70
2018-11-22T16:40:36.021Z,2.70
2018-11-22T16:43:05.373Z,2.60
2018-11-22T16:45:35.970Z,2.70
2018-11-22T16:48:06.865Z,2.70
2018-11-22T16:50:37.240Z,2.50
2018-11-22T16:53:06.419Z,2.60
2018-11-22T16:55:35.536Z,3.20
2018-11-22T16:58:04.991Z,3.10
2018-11-22T17:00:37.298Z,2.50
2018-11-22T17:03:08.409Z,2.30
2018-11-22T17:05:37.929Z,2.50
2018-11-22T17:08:07.954Z,2.60
2018-11-22T17:10:37.434Z,2.70
2018-11-22T17:13:07.043Z,2.60
2018-11-22T17:15:37.885Z,2.40
2018-11-22T17:18:08.295Z,2.40
2018-11-22T17:20:37.594Z,2.30
2018-11-22T17:23:07.293Z,2.10
2018-11-22T17:25:37.219Z,2.20
2018-11-22T17:28:07.799Z,2.00
2018-11-22T17:30:41.316Z,2.10
2018-11-22T17:33:10.653Z,2.20
2018-11-22T17:35:40.519Z,2.30
2018-11-22T17:38:10.585Z,2.00
2018-11-22T17:40:43.350Z,1.70
2018-11-22T17:43:12.537Z,1.90
2018-11-22T17:45:43.639Z,2.00
2018-11-22T17:48:12.787Z,2.00
2018-11-22T17:50:43.484Z,1.90
2018-11-22T17:53:13.364Z,1.70
2018-11-22T17:55:42.556Z,1.80
2018-11-22T17:58:12.187Z,1.70
2018-11-22T18:00:48.037Z,1.80
2018-11-22T18:03:17.177Z,1.60
2018-11-22T18:05:46.412Z,1.40
2018-11-22T18:08:15.633Z,1.40
2018-11-22T18:10:45.128Z,1.40
2018-11-22T18:13:14.304Z,1.70
2018-11-22T18:15:49.123Z,1.70
2018-11-22T18:18:18.325Z,1.60
2018-11-22T18:20:47.484Z,1.60
2018-11-22T18:23:16.654Z,1.80
2018-11-22T18:25:48.869Z,2.00
2018-11-22T18:28:15.075Z,2.00
2018-11-22T18:30:44.230Z,1.70
2018-11-22T18:33:13.401Z,1.40
2018-11-22T18:35:42.796Z,1.10
2018-11-22T18:38:12.607Z,1.10
2018-11-22T18:40:42.860Z,1.30
2018-11-22T18:43:12.039Z,1.40
2018-11-22T18:45:42.488Z,1.40
2018-11-22T18:48:13.372Z,1.30
2018-11-22T18:50:43.036Z,1.30
2018-11-22T18:53:12.646Z,1.50
2018-11-22T18:55:41.775Z,1.50
2018-11-22T18:58:11.004Z,1.40
2018-11-22T19:00:41.667Z,1.10
2018-11-22T19:03:12.487Z,1.00
2018-11-22T19:05:41.700Z,1.20
2018-11-22T19:08:10.899Z,1.40
2018-11-22T19:10:41.312Z,1.30
2018-11-22T19:13:11.143Z,1.20
2018-11-22T19:15:43.787Z,1.20
2018-11-22T19:18:13.531Z,1.10
2018-11-22T19:20:44.439Z,1.10
2018-11-22T19:23:14.880Z,0.90
2018-11-22T19:25:45.696Z,0.90
2018-11-22T19:28:14.860Z,1.00
2018-11-22T19:30:45.453Z,0.90
2018-11-22T19:33:16.715Z,0.60
2018-11-22T19:35:47.430Z,0.80
2018-11-22T19:38:16.559Z,0.90
2018-11-22T19:40:45.683Z,0.80
2018-11-22T19:43:15.399Z,0.60
2018-11-22T19:45:46.191Z,0.40
2018-11-22T19:48:15.352Z,0.40
2018-11-22T19:50:44.480Z,0.50
2018-11-22T19:53:14.695Z,0.60
2018-11-22T19:55:44.907Z,0.60
2018-11-22T19:58:15.335Z,0.80
2018-11-22T20:00:44.508Z,0.70
2018-11-22T20:03:13.625Z,0.60
2018-11-22T20:05:43.337Z,0.60
2018-11-22T20:08:14.303Z,0.70
2018-11-22T20:10:44.487Z,0.60
2018-11-22T20:13:13.604Z,0.70
2018-11-22T20:15:42.687Z,0.70
2018-11-22T20:18:12.232Z,0.70
2018-11-22T20:20:41.400Z,0.50
2018-11-22T20:23:10.523Z,0.50
2018-11-22T20:25:39.615Z,0.50
2018-11-22T20:28:08.742Z,0.30
2018-11-22T20:30:40.447Z,0.10
2018-11-22T20:33:09.583Z,0.20
2018-11-22T20:35:39.024Z,0.40
2018-11-22T20:38:08.472Z,0.50
2018-11-22T20:40:37.573Z,0.30
2018-11-22T20:43:06.692Z,0.20
2018-11-22T20:45:40.807Z,0.40
2018-11-22T20:48:07.095Z,0.10
2018-11-22T20:50:36.559Z,0.10
2018-11-22T20:53:06.374Z,0.20
2018-11-22T20:55:36.802Z,0.20
2018-11-22T20:58:06.577Z,0.00
2018-11-22T21:00:37.261Z,-0.10
2018-11-22T21:03:06.542Z,0.20
2018-11-22T21:05:35.640Z,0.40
2018-11-22T21:08:04.820Z,0.30
2018-11-22T21:10:34.343Z,0.30
2018-11-22T21:13:04.331Z,0.20
2018-11-22T21:15:34.196Z,0.10
2018-11-22T21:18:05.021Z,0.10
2018-11-22T21:20:35.754Z,0.10
2018-11-22T21:23:05.251Z,0.00
2018-11-22T21:25:34.460Z,0.10
2018-11-22T21:28:03.591Z,-0.20
2018-11-22T21:30:34.073Z,0.10
2018-11-22T21:33:03.533Z,0.10
2018-11-22T21:35:33.098Z,0.10
2018-11-22T21:38:03.128Z,0.20
2018-11-22T21:40:33.097Z,0.10
2018-11-22T21:43:02.411Z,-0.20
2018-11-22T21:45:32.947Z,-0.30
2018-11-22T21:48:02.112Z,-0.20
2018-11-22T21:50:31.250Z,-0.10
2018-11-22T21:53:00.436Z,0.00
2018-11-22T21:55:30.794Z,-0.10
2018-11-22T21:58:01.072Z,-0.30
2018-11-22T22:00:37.337Z,-0.40
2018-11-22T22:03:08.126Z,-0.40
2018-11-22T22:05:37.685Z,-0.20
2018-11-22T22:08:07.931Z,-0.30
2018-11-22T22:10:37.053Z,-0.20
2018-11-22T22:13:06.358Z,-0.20
2018-11-22T22:15:36.830Z,-0.10
2018-11-22T22:18:07.550Z,-0.10
2018-11-22T22:20:37.080Z,-0.30
2018-11-22T22:23:07.150Z,-0.50
2018-11-22T22:25:35.623Z,-0.40
2018-11-22T22:28:04.856Z,-0.20
2018-11-22T22:30:34.832Z,0.00
2018-11-22T22:33:05.447Z,-0.20
2018-11-22T22:35:34.690Z,-0.10
2018-11-22T22:38:03.848Z,0.00
2018-11-22T22:40:33.633Z,-0.10
2018-11-22T22:43:02.930Z,-0.20
2018-11-22T22:45:32.816Z,0.00
2018-11-22T22:48:02.011Z,0.10
2018-11-22T22:50:31.772Z,0.10
2018-11-22T22:53:01.471Z,0.00
2018-11-22T22:55:31.191Z,0.00
2018-11-22T22:58:00.348Z,0.00
2018-11-22T23:00:34.948Z,0.00
2018-11-22T23:03:06.148Z,0.10
2018-11-22T23:05:35.879Z,0.20
2018-11-22T23:08:05.053Z,0.30
2018-11-22T23:10:34.191Z,0.00
2018-11-22T23:13:03.398Z,0.10
2018-11-22T23:15:32.868Z,0.10
2018-11-22T23:18:02.180Z,0.20
2018-11-22T23:20:33.613Z,0.20
2018-11-22T23:23:02.780Z,0.20
2018-11-22T23:25:31.941Z,0.10
2018-11-22T23:28:01.097Z,0.20
2018-11-22T23:30:31.561Z,0.20
2018-11-22T23:33:02.843Z,0.10
2018-11-22T23:35:32.032Z,0.30
2018-11-22T23:38:01.150Z,0.30
2018-11-22T23:40:31.530Z,0.30
2018-11-22T23:43:00.620Z,0.30
2018-11-22T23:45:30.826Z,0.40
2018-11-22T23:47:59.935Z,0.50
2018-11-22T23:50:30.435Z,0.60
2018-11-22T23:53:00.855Z,0.70
2018-11-22T23:55:29.939Z,0.70
2018-11-22T23:57:59.037Z,0.80
